sensor_id;sensor_type;location;lat;lon;timestamp;P1;P2;P0
70691;PMS5003;58267;51.156;17.044;2023-10-19T00:01:59;56;54;
70691;PMS5003;58267;51.156;17.044;2023-10-19T00:04:24;57;54;
70691;PMS5003;58267;51.156;17.044;2023-10-19T00:06:50;54;54;
70691;PMS5003;58267;51.156;17.044;2023-10-19T00:09:17;57;51;
70691;PMS5003;58267;51.156;17.044;2023-10-19T00:11:42;54;52;
70691;PMS5003;58267;51.156;17.044;2023-10-19T00:14:08;56;53;
70691;PMS5003;58267;51.156;17.044;2023-10-19T00:16:33;55;53;
70691;PMS5003;58267;51.156;17.044;2023-10-19T00:18:58;60;58;
70691;PMS5003;58267;51.156;17.044;2023-10-19T00:21:24;56;50;
70691;PMS5003;58267;51.156;17.044;2023-10-19T00:23:50;54;52;
70691;PMS5003;58267;51.156;17.044;2023-10-19T00:26:15;55;52;
70691;PMS5003;58267;51.156;17.044;2023-10-19T00:28:40;49;44;
70691;PMS5003;58267;51.156;17.044;2023-10-19T00:31:05;45;41;
70691;PMS5003;58267;51.156;17.044;2023-10-19T00:33:31;49;48;
70691;PMS5003;58267;51.156;17.044;2023-10-19T00:35:58;51;49;
70691;PMS5003;58267;51.156;17.044;2023-10-19T00:38:23;53;52;
70691;PMS5003;58267;51.156;17.044;2023-10-19T00:40:50;53;50;
70691;PMS5003;58267;51.156;17.044;2023-10-19T00:43:14;49;48;
70691;PMS5003;58267;51.156;17.044;2023-10-19T00:45:39;56;53;
70691;PMS5003;58267;51.156;17.044;2023-10-19T00:48:06;49;44;
70691;PMS5003;58267;51.156;17.044;2023-10-19T00:50:30;69;62;
70691;PMS5003;58267;51.156;17.044;2023-10-19T00:52:56;53;52;
70691;PMS5003;58267;51.156;17.044;2023-10-19T00:55:21;54;48;
70691;PMS5003;58267;51.156;17.044;2023-10-19T00:57:46;54;50;
70691;PMS5003;58267;51.156;17.044;2023-10-19T01:00:12;55;54;
70691;PMS5003;58267;51.156;17.044;2023-10-19T01:02:37;56;49;
70691;PMS5003;58267;51.156;17.044;2023-10-19T01:05:02;55;52;
70691;PMS5003;58267;51.156;17.044;2023-10-19T01:07:28;53;49;
70691;PMS5003;58267;51.156;17.044;2023-10-19T01:09:53;51;50;
70691;PMS5003;58267;51.156;17.044;2023-10-19T01:12:18;62;57;
70691;PMS5003;58267;51.156;17.044;2023-10-19T01:14:44;53;49;
70691;PMS5003;58267;51.156;17.044;2023-10-19T01:17:11;52;49;
70691;PMS5003;58267;51.156;17.044;2023-10-19T01:19:34;65;54;
70691;PMS5003;58267;51.156;17.044;2023-10-19T01:22:00;57;51;
70691;PMS5003;58267;51.156;17.044;2023-10-19T01:24:25;58;55;
70691;PMS5003;58267;51.156;17.044;2023-10-19T01:26:51;56;52;
70691;PMS5003;58267;51.156;17.044;2023-10-19T01:29:16;68;60;
70691;PMS5003;58267;51.156;17.044;2023-10-19T01:31:41;60;56;
70691;PMS5003;58267;51.156;17.044;2023-10-19T01:34:07;62;57;
70691;PMS5003;58267;51.156;17.044;2023-10-19T01:36:33;60;56;
70691;PMS5003;58267;51.156;17.044;2023-10-19T01:38:58;53;52;
70691;PMS5003;58267;51.156;17.044;2023-10-19T01:41:23;58;52;
70691;PMS5003;58267;51.156;17.044;2023-10-19T01:43:50;53;50;
70691;PMS5003;58267;51.156;17.044;2023-10-19T01:46:14;62;58;
70691;PMS5003;58267;51.156;17.044;2023-10-19T01:48:39;51;47;
70691;PMS5003;58267;51.156;17.044;2023-10-19T01:51:05;52;51;
70691;PMS5003;58267;51.156;17.044;2023-10-19T01:53:29;57;55;
70691;PMS5003;58267;51.156;17.044;2023-10-19T01:55:54;48;46;
70691;PMS5003;58267;51.156;17.044;2023-10-19T01:58:20;50;48;
70691;PMS5003;58267;51.156;17.044;2023-10-19T02:00:45;52;49;
70691;PMS5003;58267;51.156;17.044;2023-10-19T02:03:10;50;47;
70691;PMS5003;58267;51.156;17.044;2023-10-19T02:05:35;53;51;
70691;PMS5003;58267;51.156;17.044;2023-10-19T02:08:01;57;53;
70691;PMS5003;58267;51.156;17.044;2023-10-19T02:10:26;57;53;
70691;PMS5003;58267;51.156;17.044;2023-10-19T02:12:52;58;54;
70691;PMS5003;58267;51.156;17.044;2023-10-19T02:15:17;56;53;
70691;PMS5003;58267;51.156;17.044;2023-10-19T02:17:42;56;53;
70691;PMS5003;58267;51.156;17.044;2023-10-19T02:20:08;55;54;
70691;PMS5003;58267;51.156;17.044;2023-10-19T02:22:36;62;46;
70691;PMS5003;58267;51.156;17.044;2023-10-19T02:25:03;62;59;
70691;PMS5003;58267;51.156;17.044;2023-10-19T02:27:28;55;54;
70691;PMS5003;58267;51.156;17.044;2023-10-19T02:29:53;58;56;
70691;PMS5003;58267;51.156;17.044;2023-10-19T02:32:19;67;60;
70691;PMS5003;58267;51.156;17.044;2023-10-19T02:34:44;57;56;
70691;PMS5003;58267;51.156;17.044;2023-10-19T02:37:09;54;51;
70691;PMS5003;58267;51.156;17.044;2023-10-19T02:39:34;56;52;
70691;PMS5003;58267;51.156;17.044;2023-10-19T02:42:00;61;57;
70691;PMS5003;58267;51.156;17.044;2023-10-19T02:44:25;59;55;
70691;PMS5003;58267;51.156;17.044;2023-10-19T02:46:51;62;58;
70691;PMS5003;58267;51.156;17.044;2023-10-19T02:49:16;61;54;
70691;PMS5003;58267;51.156;17.044;2023-10-19T02:51:43;66;62;
70691;PMS5003;58267;51.156;17.044;2023-10-19T02:54:08;63;58;
70691;PMS5003;58267;51.156;17.044;2023-10-19T02:56:33;66;59;
70691;PMS5003;58267;51.156;17.044;2023-10-19T02:58:59;64;57;
70691;PMS5003;58267;51.156;17.044;2023-10-19T03:01:24;57;56;
70691;PMS5003;58267;51.156;17.044;2023-10-19T03:03:50;65;61;
70691;PMS5003;58267;51.156;17.044;2023-10-19T03:06:18;66;64;
70691;PMS5003;58267;51.156;17.044;2023-10-19T03:08:42;69;63;
70691;PMS5003;58267;51.156;17.044;2023-10-19T03:11:07;63;59;
70691;PMS5003;58267;51.156;17.044;2023-10-19T03:13:33;55;47;
70691;PMS5003;58267;51.156;17.044;2023-10-19T03:15:58;55;54;
70691;PMS5003;58267;51.156;17.044;2023-10-19T03:18:23;56;55;
70691;PMS5003;58267;51.156;17.044;2023-10-19T03:20:49;58;57;
70691;PMS5003;58267;51.156;17.044;2023-10-19T03:23:14;66;58;
70691;PMS5003;58267;51.156;17.044;2023-10-19T03:25:39;59;58;
70691;PMS5003;58267;51.156;17.044;2023-10-19T03:28:05;77;64;
70691;PMS5003;58267;51.156;17.044;2023-10-19T03:30:30;63;58;
70691;PMS5003;58267;51.156;17.044;2023-10-19T03:32:55;69;64;
70691;PMS5003;58267;51.156;17.044;2023-10-19T03:35:21;75;70;
70691;PMS5003;58267;51.156;17.044;2023-10-19T03:37:46;75;69;
70691;PMS5003;58267;51.156;17.044;2023-10-19T03:40:12;70;63;
70691;PMS5003;58267;51.156;17.044;2023-10-19T03:42:38;71;66;
70691;PMS5003;58267;51.156;17.044;2023-10-19T03:45:04;67;64;
70691;PMS5003;58267;51.156;17.044;2023-10-19T03:47:29;88;77;
70691;PMS5003;58267;51.156;17.044;2023-10-19T03:49:54;70;64;
70691;PMS5003;58267;51.156;17.044;2023-10-19T03:52:20;64;61;
70691;PMS5003;58267;51.156;17.044;2023-10-19T03:54:45;67;60;
70691;PMS5003;58267;51.156;17.044;2023-10-19T03:57:11;67;63;
70691;PMS5003;58267;51.156;17.044;2023-10-19T03:59:35;73;70;
70691;PMS5003;58267;51.156;17.044;2023-10-19T04:02:01;69;64;
70691;PMS5003;58267;51.156;17.044;2023-10-19T04:04:27;72;66;
70691;PMS5003;58267;51.156;17.044;2023-10-19T04:06:52;75;71;
70691;PMS5003;58267;51.156;17.044;2023-10-19T04:09:17;74;69;
70691;PMS5003;58267;51.156;17.044;2023-10-19T04:11:42;73;68;
70691;PMS5003;58267;51.156;17.044;2023-10-19T04:14:07;72;67;
70691;PMS5003;58267;51.156;17.044;2023-10-19T04:16:33;77;71;
70691;PMS5003;58267;51.156;17.044;2023-10-19T04:18:58;84;75;
70691;PMS5003;58267;51.156;17.044;2023-10-19T04:21:23;72;69;
70691;PMS5003;58267;51.156;17.044;2023-10-19T04:23:49;72;69;
70691;PMS5003;58267;51.156;17.044;2023-10-19T04:26:18;71;63;
70691;PMS5003;58267;51.156;17.044;2023-10-19T04:28:43;74;73;
70691;PMS5003;58267;51.156;17.044;2023-10-19T04:31:09;72;67;
70691;PMS5003;58267;51.156;17.044;2023-10-19T04:33:34;75;74;
70691;PMS5003;58267;51.156;17.044;2023-10-19T04:35:59;77;75;
70691;PMS5003;58267;51.156;17.044;2023-10-19T04:38:24;77;70;
70691;PMS5003;58267;51.156;17.044;2023-10-19T04:40:49;75;72;
70691;PMS5003;58267;51.156;17.044;2023-10-19T04:43:15;72;69;
70691;PMS5003;58267;51.156;17.044;2023-10-19T04:45:41;67;64;
70691;PMS5003;58267;51.156;17.044;2023-10-19T04:48:07;76;71;
70691;PMS5003;58267;51.156;17.044;2023-10-19T04:50:32;69;66;
70691;PMS5003;58267;51.156;17.044;2023-10-19T04:52:58;74;68;
70691;PMS5003;58267;51.156;17.044;2023-10-19T04:55:23;79;72;
70691;PMS5003;58267;51.156;17.044;2023-10-19T04:57:49;71;70;
70691;PMS5003;58267;51.156;17.044;2023-10-19T05:00:16;74;70;
70691;PMS5003;58267;51.156;17.044;2023-10-19T05:02:40;76;70;
70691;PMS5003;58267;51.156;17.044;2023-10-19T05:05:05;76;68;
70691;PMS5003;58267;51.156;17.044;2023-10-19T05:07:30;68;66;
70691;PMS5003;58267;51.156;17.044;2023-10-19T05:09:55;73;69;
70691;PMS5003;58267;51.156;17.044;2023-10-19T05:12:21;71;67;
70691;PMS5003;58267;51.156;17.044;2023-10-19T05:14:47;73;70;
70691;PMS5003;58267;51.156;17.044;2023-10-19T05:17:12;77;75;
70691;PMS5003;58267;51.156;17.044;2023-10-19T05:19:38;79;72;
70691;PMS5003;58267;51.156;17.044;2023-10-19T05:22:04;83;76;
70691;PMS5003;58267;51.156;17.044;2023-10-19T05:24:29;83;75;
70691;PMS5003;58267;51.156;17.044;2023-10-19T05:26:55;86;78;
70691;PMS5003;58267;51.156;17.044;2023-10-19T05:29:20;72;69;
70691;PMS5003;58267;51.156;17.044;2023-10-19T05:31:47;81;74;
70691;PMS5003;58267;51.156;17.044;2023-10-19T05:34:11;76;74;
70691;PMS5003;58267;51.156;17.044;2023-10-19T05:36:36;80;74;
70691;PMS5003;58267;51.156;17.044;2023-10-19T05:39:02;78;70;
70691;PMS5003;58267;51.156;17.044;2023-10-19T05:41:28;76;72;
70691;PMS5003;58267;51.156;17.044;2023-10-19T05:43:53;73;69;
70691;PMS5003;58267;51.156;17.044;2023-10-19T05:46:19;77;74;
70691;PMS5003;58267;51.156;17.044;2023-10-19T05:48:44;78;73;
70691;PMS5003;58267;51.156;17.044;2023-10-19T05:51:09;68;65;
70691;PMS5003;58267;51.156;17.044;2023-10-19T05:53:36;77;76;
70691;PMS5003;58267;51.156;17.044;2023-10-19T05:56:01;79;68;
70691;PMS5003;58267;51.156;17.044;2023-10-19T05:58:26;68;67;
70691;PMS5003;58267;51.156;17.044;2023-10-19T06:00:51;73;71;
70691;PMS5003;58267;51.156;17.044;2023-10-19T06:03:17;72;64;
70691;PMS5003;58267;51.156;17.044;2023-10-19T06:05:42;69;65;
70691;PMS5003;58267;51.156;17.044;2023-10-19T06:08:08;73;69;
70691;PMS5003;58267;51.156;17.044;2023-10-19T06:10:34;75;68;
70691;PMS5003;58267;51.156;17.044;2023-10-19T06:12:59;70;66;
70691;PMS5003;58267;51.156;17.044;2023-10-19T06:15:24;71;67;
70691;PMS5003;58267;51.156;17.044;2023-10-19T06:17:49;79;73;
70691;PMS5003;58267;51.156;17.044;2023-10-19T06:20:15;74;73;
70691;PMS5003;58267;51.156;17.044;2023-10-19T06:22:41;73;70;
70691;PMS5003;58267;51.156;17.044;2023-10-19T06:25:06;65;62;
70691;PMS5003;58267;51.156;17.044;2023-10-19T06:27:31;72;67;
70691;PMS5003;58267;51.156;17.044;2023-10-19T06:29:57;67;63;
70691;PMS5003;58267;51.156;17.044;2023-10-19T06:32:22;73;69;
70691;PMS5003;58267;51.156;17.044;2023-10-19T06:34:47;74;69;
70691;PMS5003;58267;51.156;17.044;2023-10-19T06:37:13;60;58;
70691;PMS5003;58267;51.156;17.044;2023-10-19T06:39:42;46;46;
70691;PMS5003;58267;51.156;17.044;2023-10-19T06:42:07;69;68;
70691;PMS5003;58267;51.156;17.044;2023-10-19T06:44:32;72;66;
70691;PMS5003;58267;51.156;17.044;2023-10-19T06:46:57;71;66;
70691;PMS5003;58267;51.156;17.044;2023-10-19T06:49:22;73;64;
70691;PMS5003;58267;51.156;17.044;2023-10-19T06:51:48;67;65;
70691;PMS5003;58267;51.156;17.044;2023-10-19T06:54:13;66;63;
70691;PMS5003;58267;51.156;17.044;2023-10-19T06:56:39;66;63;
70691;PMS5003;58267;51.156;17.044;2023-10-19T06:59:04;75;70;
70691;PMS5003;58267;51.156;17.044;2023-10-19T07:01:29;69;66;
70691;PMS5003;58267;51.156;17.044;2023-10-19T07:04:00;68;66;
70691;PMS5003;58267;51.156;17.044;2023-10-19T07:06:20;78;69;
70691;PMS5003;58267;51.156;17.044;2023-10-19T07:08:45;68;67;
70691;PMS5003;58267;51.156;17.044;2023-10-19T07:11:11;67;64;
70691;PMS5003;58267;51.156;17.044;2023-10-19T07:13:36;75;65;
70691;PMS5003;58267;51.156;17.044;2023-10-19T07:16:02;71;64;
70691;PMS5003;58267;51.156;17.044;2023-10-19T07:18:27;72;68;
70691;PMS5003;58267;51.156;17.044;2023-10-19T07:20:52;66;64;
70691;PMS5003;58267;51.156;17.044;2023-10-19T07:23:17;63;60;
70691;PMS5003;58267;51.156;17.044;2023-10-19T07:25:42;67;63;
70691;PMS5003;58267;51.156;17.044;2023-10-19T07:28:08;62;60;
70691;PMS5003;58267;51.156;17.044;2023-10-19T07:30:34;59;58;
70691;PMS5003;58267;51.156;17.044;2023-10-19T07:33:01;64;59;
70691;PMS5003;58267;51.156;17.044;2023-10-19T07:35:27;62;58;
70691;PMS5003;58267;51.156;17.044;2023-10-19T07:37:52;66;64;
70691;PMS5003;58267;51.156;17.044;2023-10-19T07:40:17;71;63;
70691;PMS5003;58267;51.156;17.044;2023-10-19T07:42:42;69;65;
70691;PMS5003;58267;51.156;17.044;2023-10-19T07:45:08;62;58;
70691;PMS5003;58267;51.156;17.044;2023-10-19T07:47:33;68;62;
70691;PMS5003;58267;51.156;17.044;2023-10-19T07:49:58;64;59;
70691;PMS5003;58267;51.156;17.044;2023-10-19T07:52:24;66;63;
70691;PMS5003;58267;51.156;17.044;2023-10-19T07:54:49;68;64;
70691;PMS5003;58267;51.156;17.044;2023-10-19T07:57:15;68;67;
70691;PMS5003;58267;51.156;17.044;2023-10-19T07:59:40;61;58;
70691;PMS5003;58267;51.156;17.044;2023-10-19T08:02:06;72;68;
70691;PMS5003;58267;51.156;17.044;2023-10-19T08:04:31;66;63;
70691;PMS5003;58267;51.156;17.044;2023-10-19T08:06:56;66;64;
70691;PMS5003;58267;51.156;17.044;2023-10-19T08:09:22;65;61;
70691;PMS5003;58267;51.156;17.044;2023-10-19T08:11:47;67;65;
70691;PMS5003;58267;51.156;17.044;2023-10-19T08:14:13;67;62;
70691;PMS5003;58267;51.156;17.044;2023-10-19T08:16:38;72;66;
70691;PMS5003;58267;51.156;17.044;2023-10-19T08:19:04;63;59;
70691;PMS5003;58267;51.156;17.044;2023-10-19T08:21:29;64;62;
70691;PMS5003;58267;51.156;17.044;2023-10-19T08:23:57;40;40;
70691;PMS5003;58267;51.156;17.044;2023-10-19T08:26:22;67;65;
70691;PMS5003;58267;51.156;17.044;2023-10-19T08:28:47;68;67;
70691;PMS5003;58267;51.156;17.044;2023-10-19T08:31:13;62;59;
70691;PMS5003;58267;51.156;17.044;2023-10-19T08:33:38;72;67;
70691;PMS5003;58267;51.156;17.044;2023-10-19T08:36:04;67;63;
70691;PMS5003;58267;51.156;17.044;2023-10-19T08:38:30;70;63;
70691;PMS5003;58267;51.156;17.044;2023-10-19T08:40:55;64;62;
70691;PMS5003;58267;51.156;17.044;2023-10-19T08:43:20;79;72;
70691;PMS5003;58267;51.156;17.044;2023-10-19T08:45:46;72;70;
70691;PMS5003;58267;51.156;17.044;2023-10-19T08:48:12;73;69;
70691;PMS5003;58267;51.156;17.044;2023-10-19T08:50:37;77;70;
70691;PMS5003;58267;51.156;17.044;2023-10-19T08:53:02;73;67;
70691;PMS5003;58267;51.156;17.044;2023-10-19T08:55:27;76;69;
70691;PMS5003;58267;51.156;17.044;2023-10-19T08:57:53;79;73;
70691;PMS5003;58267;51.156;17.044;2023-10-19T09:00:19;75;70;
70691;PMS5003;58267;51.156;17.044;2023-10-19T09:02:44;74;71;
70691;PMS5003;58267;51.156;17.044;2023-10-19T09:05:10;73;69;
70691;PMS5003;58267;51.156;17.044;2023-10-19T09:07:36;77;70;
70691;PMS5003;58267;51.156;17.044;2023-10-19T09:10:01;77;70;
70691;PMS5003;58267;51.156;17.044;2023-10-19T09:12:26;77;70;
70691;PMS5003;58267;51.156;17.044;2023-10-19T09:14:52;77;73;
70691;PMS5003;58267;51.156;17.044;2023-10-19T09:17:18;65;65;
70691;PMS5003;58267;51.156;17.044;2023-10-19T09:19:43;72;69;
70691;PMS5003;58267;51.156;17.044;2023-10-19T09:22:09;71;68;
70691;PMS5003;58267;51.156;17.044;2023-10-19T09:24:34;70;67;
70691;PMS5003;58267;51.156;17.044;2023-10-19T09:27:01;73;70;
70691;PMS5003;58267;51.156;17.044;2023-10-19T09:29:25;62;59;
70691;PMS5003;58267;51.156;17.044;2023-10-19T09:31:51;69;66;
70691;PMS5003;58267;51.156;17.044;2023-10-19T09:34:17;72;69;
70691;PMS5003;58267;51.156;17.044;2023-10-19T09:36:42;80;76;
70691;PMS5003;58267;51.156;17.044;2023-10-19T09:39:07;70;68;
70691;PMS5003;58267;51.156;17.044;2023-10-19T09:41:33;80;73;
70691;PMS5003;58267;51.156;17.044;2023-10-19T09:43:59;76;69;
70691;PMS5003;58267;51.156;17.044;2023-10-19T09:46:26;73;70;
70691;PMS5003;58267;51.156;17.044;2023-10-19T09:48:49;70;65;
70691;PMS5003;58267;51.156;17.044;2023-10-19T09:51:14;75;67;
70691;PMS5003;58267;51.156;17.044;2023-10-19T09:53:40;76;68;
70691;PMS5003;58267;51.156;17.044;2023-10-19T09:56:06;70;67;
70691;PMS5003;58267;51.156;17.044;2023-10-19T09:58:33;82;77;
70691;PMS5003;58267;51.156;17.044;2023-10-19T10:00:57;73;67;
70691;PMS5003;58267;51.156;17.044;2023-10-19T10:05:49;76;68;
70691;PMS5003;58267;51.156;17.044;2023-10-19T10:10:40;79;73;
70691;PMS5003;58267;51.156;17.044;2023-10-19T10:17:56;79;75;
70691;PMS5003;58267;51.156;17.044;2023-10-19T10:23:15;80;77;
70691;PMS5003;58267;51.156;17.044;2023-10-19T10:27:40;77;74;
70691;PMS5003;58267;51.156;17.044;2023-10-19T10:30:05;74;71;
70691;PMS5003;58267;51.156;17.044;2023-10-19T10:34:56;79;74;
70691;PMS5003;58267;51.156;17.044;2023-10-19T10:37:22;80;75;
70691;PMS5003;58267;51.156;17.044;2023-10-19T10:39:47;75;71;
70691;PMS5003;58267;51.156;17.044;2023-10-19T10:42:13;86;77;
70691;PMS5003;58267;51.156;17.044;2023-10-19T10:44:38;70;66;
70691;PMS5003;58267;51.156;17.044;2023-10-19T10:47:04;75;68;
70691;PMS5003;58267;51.156;17.044;2023-10-19T10:49:30;71;68;
70691;PMS5003;58267;51.156;17.044;2023-10-19T10:51:55;73;70;
70691;PMS5003;58267;51.156;17.044;2023-10-19T10:54:21;80;76;
70691;PMS5003;58267;51.156;17.044;2023-10-19T10:56:46;75;68;
70691;PMS5003;58267;51.156;17.044;2023-10-19T10:59:12;72;69;
70691;PMS5003;58267;51.156;17.044;2023-10-19T11:01:38;71;69;
70691;PMS5003;58267;51.156;17.044;2023-10-19T11:04:06;76;71;
70691;PMS5003;58267;51.156;17.044;2023-10-19T11:06:28;78;75;
70691;PMS5003;58267;51.156;17.044;2023-10-19T11:08:54;80;75;
70691;PMS5003;58267;51.156;17.044;2023-10-19T11:11:20;76;73;
70691;PMS5003;58267;51.156;17.044;2023-10-19T11:13:45;77;75;
70691;PMS5003;58267;51.156;17.044;2023-10-19T11:16:10;84;76;
70691;PMS5003;58267;51.156;17.044;2023-10-19T11:18:37;82;75;
70691;PMS5003;58267;51.156;17.044;2023-10-19T11:21:02;82;77;
70691;PMS5003;58267;51.156;17.044;2023-10-19T11:25:57;74;67;
70691;PMS5003;58267;51.156;17.044;2023-10-19T11:28:18;81;75;
70691;PMS5003;58267;51.156;17.044;2023-10-19T11:30:44;73;68;
70691;PMS5003;58267;51.156;17.044;2023-10-19T11:33:09;79;71;
70691;PMS5003;58267;51.156;17.044;2023-10-19T11:35:35;72;72;
70691;PMS5003;58267;51.156;17.044;2023-10-19T11:38:00;75;68;
70691;PMS5003;58267;51.156;17.044;2023-10-19T11:40:26;73;70;
70691;PMS5003;58267;51.156;17.044;2023-10-19T11:42:52;71;68;
70691;PMS5003;58267;51.156;17.044;2023-10-19T11:45:17;69;69;
70691;PMS5003;58267;51.156;17.044;2023-10-19T11:47:42;76;71;
70691;PMS5003;58267;51.156;17.044;2023-10-19T11:50:08;73;71;
70691;PMS5003;58267;51.156;17.044;2023-10-19T11:52:33;72;67;
70691;PMS5003;58267;51.156;17.044;2023-10-19T11:54:58;80;75;
70691;PMS5003;58267;51.156;17.044;2023-10-19T11:57:23;77;73;
70691;PMS5003;58267;51.156;17.044;2023-10-19T11:59:49;76;71;
70691;PMS5003;58267;51.156;17.044;2023-10-19T12:02:15;73;67;
70691;PMS5003;58267;51.156;17.044;2023-10-19T12:04:40;71;70;
70691;PMS5003;58267;51.156;17.044;2023-10-19T12:07:06;71;70;
70691;PMS5003;58267;51.156;17.044;2023-10-19T12:09:31;71;66;
70691;PMS5003;58267;51.156;17.044;2023-10-19T12:11:57;71;66;
70691;PMS5003;58267;51.156;17.044;2023-10-19T12:14:22;71;66;
70691;PMS5003;58267;51.156;17.044;2023-10-19T12:16:48;70;67;
70691;PMS5003;58267;51.156;17.044;2023-10-19T12:19:13;71;70;
70691;PMS5003;58267;51.156;17.044;2023-10-19T12:21:39;69;66;
70691;PMS5003;58267;51.156;17.044;2023-10-19T12:24:05;69;64;
70691;PMS5003;58267;51.156;17.044;2023-10-19T12:26:30;67;65;
70691;PMS5003;58267;51.156;17.044;2023-10-19T12:28:55;62;59;
70691;PMS5003;58267;51.156;17.044;2023-10-19T12:31:20;69;68;
70691;PMS5003;58267;51.156;17.044;2023-10-19T12:33:46;71;69;
70691;PMS5003;58267;51.156;17.044;2023-10-19T12:36:12;63;62;
70691;PMS5003;58267;51.156;17.044;2023-10-19T12:38:37;64;61;
70691;PMS5003;58267;51.156;17.044;2023-10-19T12:41:02;68;64;
70691;PMS5003;58267;51.156;17.044;2023-10-19T12:43:28;65;61;
70691;PMS5003;58267;51.156;17.044;2023-10-19T12:45:53;69;64;
70691;PMS5003;58267;51.156;17.044;2023-10-19T12:48:19;61;59;
70691;PMS5003;58267;51.156;17.044;2023-10-19T12:50:44;62;61;
70691;PMS5003;58267;51.156;17.044;2023-10-19T12:53:10;69;64;
70691;PMS5003;58267;51.156;17.044;2023-10-19T12:55:35;60;54;
70691;PMS5003;58267;51.156;17.044;2023-10-19T12:58:01;64;62;
70691;PMS5003;58267;51.156;17.044;2023-10-19T13:00:26;61;61;
70691;PMS5003;58267;51.156;17.044;2023-10-19T13:02:51;70;66;
70691;PMS5003;58267;51.156;17.044;2023-10-19T13:05:17;62;58;
70691;PMS5003;58267;51.156;17.044;2023-10-19T13:07:42;57;57;
70691;PMS5003;58267;51.156;17.044;2023-10-19T13:10:07;63;60;
70691;PMS5003;58267;51.156;17.044;2023-10-19T13:12:33;61;60;
70691;PMS5003;58267;51.156;17.044;2023-10-19T13:14:58;64;61;
70691;PMS5003;58267;51.156;17.044;2023-10-19T13:17:24;62;60;
70691;PMS5003;58267;51.156;17.044;2023-10-19T13:19:49;70;65;
70691;PMS5003;58267;51.156;17.044;2023-10-19T13:22:15;61;57;
70691;PMS5003;58267;51.156;17.044;2023-10-19T13:24:41;72;68;
70691;PMS5003;58267;51.156;17.044;2023-10-19T13:27:07;67;61;
70691;PMS5003;58267;51.156;17.044;2023-10-19T13:29:32;67;60;
70691;PMS5003;58267;51.156;17.044;2023-10-19T13:31:57;69;66;
70691;PMS5003;58267;51.156;17.044;2023-10-19T13:34:22;71;67;
70691;PMS5003;58267;51.156;17.044;2023-10-19T13:36:48;66;61;
70691;PMS5003;58267;51.156;17.044;2023-10-19T13:39:13;70;67;
70691;PMS5003;58267;51.156;17.044;2023-10-19T13:41:40;70;67;
70691;PMS5003;58267;51.156;17.044;2023-10-19T13:44:05;79;72;
70691;PMS5003;58267;51.156;17.044;2023-10-19T13:46:31;69;66;
70691;PMS5003;58267;51.156;17.044;2023-10-19T13:48:56;69;69;
70691;PMS5003;58267;51.156;17.044;2023-10-19T13:51:22;74;70;
70691;PMS5003;58267;51.156;17.044;2023-10-19T13:53:47;69;63;
70691;PMS5003;58267;51.156;17.044;2023-10-19T13:56:13;71;68;
70691;PMS5003;58267;51.156;17.044;2023-10-19T13:58:38;69;64;
70691;PMS5003;58267;51.156;17.044;2023-10-19T14:01:06;70;67;
70691;PMS5003;58267;51.156;17.044;2023-10-19T14:03:29;69;67;
70691;PMS5003;58267;51.156;17.044;2023-10-19T14:05:54;65;64;
70691;PMS5003;58267;51.156;17.044;2023-10-19T14:08:20;65;63;
70691;PMS5003;58267;51.156;17.044;2023-10-19T14:10:46;70;67;
70691;PMS5003;58267;51.156;17.044;2023-10-19T14:13:11;69;65;
70691;PMS5003;58267;51.156;17.044;2023-10-19T14:15:37;64;62;
70691;PMS5003;58267;51.156;17.044;2023-10-19T14:18:02;69;65;
70691;PMS5003;58267;51.156;17.044;2023-10-19T14:20:28;74;67;
70691;PMS5003;58267;51.156;17.044;2023-10-19T14:22:53;70;66;
70691;PMS5003;58267;51.156;17.044;2023-10-19T14:25:19;66;64;
70691;PMS5003;58267;51.156;17.044;2023-10-19T14:27:46;72;67;
70691;PMS5003;58267;51.156;17.044;2023-10-19T14:30:10;72;69;
70691;PMS5003;58267;51.156;17.044;2023-10-19T14:32:35;65;62;
70691;PMS5003;58267;51.156;17.044;2023-10-19T14:35:00;69;66;
70691;PMS5003;58267;51.156;17.044;2023-10-19T14:37:25;67;61;
70691;PMS5003;58267;51.156;17.044;2023-10-19T14:39:51;68;61;
70691;PMS5003;58267;51.156;17.044;2023-10-19T14:42:17;67;64;
70691;PMS5003;58267;51.156;17.044;2023-10-19T14:44:43;69;63;
70691;PMS5003;58267;51.156;17.044;2023-10-19T14:47:08;67;63;
70691;PMS5003;58267;51.156;17.044;2023-10-19T14:49:33;67;64;
70691;PMS5003;58267;51.156;17.044;2023-10-19T14:51:58;69;65;
70691;PMS5003;58267;51.156;17.044;2023-10-19T14:54:24;76;72;
70691;PMS5003;58267;51.156;17.044;2023-10-19T14:56:49;66;62;
70691;PMS5003;58267;51.156;17.044;2023-10-19T14:59:15;72;69;
70691;PMS5003;58267;51.156;17.044;2023-10-19T15:01:40;79;73;
70691;PMS5003;58267;51.156;17.044;2023-10-19T15:04:06;60;59;
70691;PMS5003;58267;51.156;17.044;2023-10-19T15:06:32;68;63;
70691;PMS5003;58267;51.156;17.044;2023-10-19T15:09:02;74;70;
70691;PMS5003;58267;51.156;17.044;2023-10-19T15:11:22;77;72;
70691;PMS5003;58267;51.156;17.044;2023-10-19T15:13:48;82;79;
70691;PMS5003;58267;51.156;17.044;2023-10-19T15:16:14;61;58;
70691;PMS5003;58267;51.156;17.044;2023-10-19T15:18:39;72;68;
70691;PMS5003;58267;51.156;17.044;2023-10-19T15:21:06;70;67;
70691;PMS5003;58267;51.156;17.044;2023-10-19T15:23:32;73;67;
70691;PMS5003;58267;51.156;17.044;2023-10-19T15:25:57;76;72;
70691;PMS5003;58267;51.156;17.044;2023-10-19T15:28:23;77;71;
70691;PMS5003;58267;51.156;17.044;2023-10-19T15:30:50;76;69;
70691;PMS5003;58267;51.156;17.044;2023-10-19T15:33:14;75;72;
70691;PMS5003;58267;51.156;17.044;2023-10-19T15:35:40;92;81;
70691;PMS5003;58267;51.156;17.044;2023-10-19T15:38:05;77;71;
70691;PMS5003;58267;51.156;17.044;2023-10-19T15:40:31;83;78;
70691;PMS5003;58267;51.156;17.044;2023-10-19T15:42:56;73;66;
70691;PMS5003;58267;51.156;17.044;2023-10-19T15:45:22;89;85;
70691;PMS5003;58267;51.156;17.044;2023-10-19T15:47:48;84;77;
70691;PMS5003;58267;51.156;17.044;2023-10-19T15:50:14;86;80;
70691;PMS5003;58267;51.156;17.044;2023-10-19T15:52:39;83;76;
70691;PMS5003;58267;51.156;17.044;2023-10-19T15:55:04;91;87;
70691;PMS5003;58267;51.156;17.044;2023-10-19T15:57:30;77;74;
70691;PMS5003;58267;51.156;17.044;2023-10-19T15:59:55;90;81;
70691;PMS5003;58267;51.156;17.044;2023-10-19T16:02:20;87;81;
70691;PMS5003;58267;51.156;17.044;2023-10-19T16:04:45;88;81;
70691;PMS5003;58267;51.156;17.044;2023-10-19T16:07:11;79;74;
70691;PMS5003;58267;51.156;17.044;2023-10-19T16:09:36;79;78;